Ice Star — OUJK2 — position and weather

sailwx.info

Track history (hours):
 
Tides and Currents Weather Stations Pressure Air Temp Water Temp Dewpoint Dewpoint Depression Visibility Wind Speed Wind Dir Waves Ship Positions

Ice Star

Last reported at 2018-Jun-18 08:37 UTC. Time now 2018-Jun-18 17:38 UTC.
Position N 40°14' W 130°25'.

Length 367 m; draft 12.2 m.

Type: Ship (hazmat cat A). MMSI: 220596000.

Date/timePositionNaut miles runAvg speedWind from/ knotsBaromVisibWave heightAir tempDewpointWater temp
2018-Jun-18 08:37N 40°14' W 130°25'617.5
2018-Jun-18 08:15N 40°09' W 130°19'517.7
2018-Jun-18 07:57N 40°06' W 130°14'817.4
2018-Jun-18 07:30N 40°01' W 130°07'917.0
2018-Jun-18 06:59N 39°55' W 129°58'1916.8
2018-Jun-18 05:52N 39°42' W 129°40'616.6
2018-Jun-18 05:30N 39°37' W 129°35'1016.8
2018-Jun-18 04:56N 39°31' W 129°26'716.8
2018-Jun-18 04:30N 39°26' W 129°19'816.9
2018-Jun-18 04:00N 39°20' W 129°11'916.7
2018-Jun-18 03:29N 39°14' W 129°03'816.7
2018-Jun-18 03:00N 39°08' W 128°56'916.5
2018-Jun-18 02:28N 39°02' W 128°48'1216.7
2018-Jun-18 01:43N 38°53' W 128°36'616.7
2018-Jun-18 01:21N 38°49' W 128°30'18014.4
2018-Jun-17 12:55N 38°14' W 124°45'613.9
2018-Jun-17 12:28N 38°14' W 124°37'613.7
2018-Jun-17 12:00N 38°13' W 124°29'714.2
2018-Jun-17 11:30N 38°13' W 124°20'714.5
2018-Jun-17 11:01N 38°13' W 124°11'713.9
2018-Jun-17 10:30N 38°12' W 124°02'714.0
2018-Jun-17 10:00N 38°12' W 123°53'714.4
2018-Jun-17 09:30N 38°11' W 123°44'714.3
2018-Jun-17 09:00N 38°11' W 123°35'714.3
2018-Jun-17 08:30N 38°10' W 123°26'510.8
2018-Jun-17 08:00N 38°08' W 123°20'5 9.6
2018-Jun-17 07:30N 38°05' W 123°15'5 9.3
2018-Jun-17 07:00N 38°01' W 123°12'5 9.4
2018-Jun-17 06:30N 37°58' W 123°07'510.0
2018-Jun-17 06:00N 37°56' W 123°02'5 9.9
2018-Jun-17 05:30N 37°53' W 122°56'5 9.9
2018-Jun-17 05:00N 37°51' W 122°51'5 9.6
2018-Jun-17 04:30N 37°48' W 122°46'5 9.9
2018-Jun-17 04:00N 37°45' W 122°41'5 9.3
2018-Jun-17 03:31N 37°47' W 122°35'714.9
2018-Jun-17 03:01N 37°51' W 122°27'510.6
2018-Jun-17 02:30N 37°48' W 122°21'2 3.5
2018-Jun-17 01:59N 37°48' W 122°19'0 0.0
2018-Jun-17 01:29N 37°48' W 122°19'0 0.0
2018-Jun-17 00:59N 37°48' W 122°19'0 0.0
2018-Jun-17 00:29N 37°48' W 122°19'0 0.0
2018-Jun-16 23:59N 37°48' W 122°19'0 0.0
2018-Jun-16 23:26N 37°48' W 122°19'0 0.0
2018-Jun-16 22:56N 37°48' W 122°19'0 0.0
2018-Jun-16 22:29N 37°48' W 122°19'0 0.0
2018-Jun-16 21:59N 37°48' W 122°19'0 0.0
2018-Jun-16 21:29N 37°48' W 122°19'0 0.0
2018-Jun-16 20:56N 37°48' W 122°19'0 0.0
2018-Jun-16 20:29N 37°48' W 122°19'0 0.0
2018-Jun-16 19:56N 37°48' W 122°19'0 0.0
2018-Jun-16 19:29N 37°48' W 122°19'0 0.0
2018-Jun-16 18:59N 37°48' W 122°19'0 0.0
2018-Jun-16 18:29N 37°48' W 122°19'0 0.0
2018-Jun-16 17:59N 37°48' W 122°19'0 0.0
2018-Jun-16 17:29N 37°48' W 122°19'0 0.0
2018-Jun-16 16:56N 37°48' W 122°19'0 0.0
2018-Jun-16 16:26N 37°48' W 122°19'0 0.0
2018-Jun-16 15:59N 37°48' W 122°19'0 0.0
2018-Jun-16 15:29N 37°48' W 122°19'0 0.0
2018-Jun-16 14:59N 37°48' W 122°19'0 0.0
2018-Jun-16 14:29N 37°48' W 122°19'0 0.0
2018-Jun-16 13:59N 37°48' W 122°19'0 0.0
2018-Jun-16 13:23N 37°48' W 122°19'0 0.0
2018-Jun-16 12:59N 37°48' W 122°19'0 0.0
2018-Jun-16 12:29N 37°48' W 122°19'0 0.0
2018-Jun-16 11:59N 37°48' W 122°19'0 0.0
2018-Jun-16 11:26N 37°48' W 122°19'0 0.0
2018-Jun-16 10:59N 37°48' W 122°19'0 0.0
2018-Jun-16 10:29N 37°48' W 122°19'0 0.0
2018-Jun-16 09:59N 37°48' W 122°19'0 0.0
2018-Jun-16 09:26N 37°48' W 122°19'0 0.0
2018-Jun-16 08:59N 37°48' W 122°19'0 0.0
2018-Jun-16 08:29N 37°48' W 122°19'0 0.0
2018-Jun-16 07:59N 37°48' W 122°19'0 0.0
2018-Jun-16 07:29N 37°48' W 122°19'0 0.0
2018-Jun-16 06:59N 37°48' W 122°19'0 0.0
2018-Jun-16 06:29N 37°48' W 122°19'0 0.0
2018-Jun-16 05:59N 37°48' W 122°19'0 0.0
2018-Jun-16 05:29N 37°48' W 122°19'0 0.0
2018-Jun-16 04:59N 37°48' W 122°19'0 0.0
2018-Jun-16 04:29N 37°48' W 122°19'0 0.0
2018-Jun-16 03:59N 37°48' W 122°19'0 0.0
2018-Jun-16 03:26N 37°48' W 122°19'0 0.0
2018-Jun-16 02:59N 37°48' W 122°19'0 0.0
2018-Jun-16 02:26N 37°48' W 122°19'0 0.0
2018-Jun-16 01:56N 37°48' W 122°19'0 0.0
2018-Jun-16 01:29N 37°48' W 122°19'0 0.0
2018-Jun-16 00:59N 37°48' W 122°19'0 0.0
2018-Jun-16 00:29N 37°48' W 122°19'0 0.0
2018-Jun-15 23:59N 37°48' W 122°19'0 0.0
2018-Jun-15 23:31N 37°48' W 122°19'1 2.1
2018-Jun-15 23:00N 37°48' W 122°17'1 1.7
2018-Jun-15 22:30N 37°48' W 122°18'3 5.5
2018-Jun-15 22:00N 37°48' W 122°22'510.0
2018-Jun-15 21:30N 37°49' W 122°28'714.4
2018-Jun-15 21:00N 37°46' W 122°36'4 7.4
2018-Jun-15 20:30N 37°44' W 122°39'3 7.0
2018-Jun-15 20:00N 37°40' W 122°39'5 9.6
2018-Jun-15 19:30N 37°35' W 122°39'5 9.5
2018-Jun-15 19:00N 37°31' W 122°40'5 9.5
2018-Jun-15 18:30N 37°26' W 122°40'5 9.5
2018-Jun-15 18:00N 37°21' W 122°40'5 9.7
2018-Jun-15 17:30N 37°16' W 122°39'5 9.9
2018-Jun-15 17:00N 37°11' W 122°39'713.2
2018-Jun-15 16:30N 37°05' W 122°37'713.5
2018-Jun-15 15:58N 36°58' W 122°33'713.5
2018-Jun-15 15:29N 36°52' W 122°30'7913.6
2018-Jun-15 09:42N 35°42' W 121°46'1313.0
2018-Jun-15 08:43N 35°31' W 121°37'313.8
2018-Jun-15 08:28N 35°28' W 121°35'813.9
2018-Jun-15 07:55N 35°22' W 121°31'714.0
2018-Jun-15 07:24N 35°15' W 121°26'513.1
2018-Jun-15 07:00N 35°11' W 121°23'812.9
2018-Jun-15 06:25N 35°04' W 121°19'613.7
2018-Jun-15 05:58N 34°59' W 121°15'714.1
2018-Jun-15 05:27N 34°53' W 121°11'713.8
2018-Jun-15 04:57N 34°47' W 121°06'714.0
2018-Jun-15 04:28N 34°41' W 121°02'713.7
2018-Jun-15 03:59N 34°35' W 120°58'714.1
2018-Jun-15 03:28N 34°29' W 120°54'1513.9
2018-Jun-15 02:23N 34°23' W 120°37'613.2
2018-Jun-15 01:58N 34°21' W 120°30'5 9.0
2018-Jun-15 01:26N 34°20' W 120°25'4 8.7
2018-Jun-15 01:00N 34°19' W 120°20'5 8.9
2018-Jun-15 00:29N 34°18' W 120°15'4 8.9
2018-Jun-14 23:59N 34°17' W 120°10'4 8.9
2018-Jun-14 23:30N 34°16' W 120°05'5 9.1
2018-Jun-14 23:00N 34°15' W 119°59'5 9.3
2018-Jun-14 22:29N 34°13' W 119°54'5 9.6
2018-Jun-14 21:58N 34°12' W 119°48'4 9.7
2018-Jun-14 21:30N 34°11' W 119°43'5 9.9
2018-Jun-14 21:00N 34°10' W 119°37'5 9.7
2018-Jun-14 20:30N 34°08' W 119°32'611.5
2018-Jun-14 19:59N 34°06' W 119°25'612.0
2018-Jun-14 19:30N 34°05' W 119°18'611.8
2018-Jun-14 19:00N 34°03' W 119°11'611.7
2018-Jun-14 18:30N 33°60' W 119°05'611.6
2018-Jun-14 17:58N 33°57' W 118°59'611.5
2018-Jun-14 17:29N 33°54' W 118°53'611.7
2018-Jun-14 17:00N 33°51' W 118°47'611.5
2018-Jun-14 16:29N 33°48' W 118°41'611.7
2018-Jun-14 16:00N 33°45' W 118°35'611.4
2018-Jun-14 15:30N 33°43' W 118°29'611.4
2018-Jun-14 15:00N 33°40' W 118°23'611.0
2018-Jun-14 14:28N 33°38' W 118°16'4 9.4
2018-Jun-14 14:00N 33°41' W 118°12'4 7.2
2018-Jun-14 13:31N 33°44' W 118°12'2 3.4
2018-Jun-14 13:00N 33°45' W 118°14'0 0.7
2018-Jun-14 12:30N 33°45' W 118°14'0 0.0
2018-Jun-14 12:00N 33°45' W 118°14'0 0.0
2018-Jun-14 11:30N 33°45' W 118°14'0 0.0
2018-Jun-14 11:00N 33°45' W 118°14'0 0.0
2018-Jun-14 10:30N 33°45' W 118°14'0 0.0
2018-Jun-14 09:57N 33°45' W 118°14'0 0.0
2018-Jun-14 09:30N 33°45' W 118°14'0 0.0
2018-Jun-14 09:00N 33°45' W 118°14'0 0.0
2018-Jun-14 08:30N 33°45' W 118°14'0 0.0
2018-Jun-14 08:00N 33°45' W 118°14'0 0.0
2018-Jun-14 07:30N 33°45' W 118°14'0 0.0
2018-Jun-14 07:00N 33°45' W 118°14'0 0.0
2018-Jun-14 06:30N 33°45' W 118°14'0 0.0
2018-Jun-14 05:57N 33°45' W 118°14'0 0.0
2018-Jun-14 05:30N 33°45' W 118°14'0 0.0
2018-Jun-14 05:00N 33°45' W 118°14'0 0.0
2018-Jun-14 04:30N 33°45' W 118°14'0 0.0
2018-Jun-14 04:00N 33°45' W 118°14'0 0.0
2018-Jun-14 03:30N 33°45' W 118°14'0 0.0
2018-Jun-14 03:00N 33°45' W 118°14'0 0.0
2018-Jun-14 02:30N 33°45' W 118°14'0 0.0
2018-Jun-14 02:00N 33°45' W 118°14'0 0.0
2018-Jun-14 01:30N 33°45' W 118°14'0 0.0
2018-Jun-14 01:00N 33°45' W 118°14'0 0.0
2018-Jun-14 00:30N 33°45' W 118°14'0 0.0
2018-Jun-14 00:00N 33°45' W 118°14'0 0.0
2018-Jun-13 23:30N 33°45' W 118°14'0 0.0
2018-Jun-13 23:00N 33°45' W 118°14'0 0.0
2018-Jun-13 22:30N 33°45' W 118°14'0 0.0
2018-Jun-13 21:57N 33°45' W 118°14'0 0.0
2018-Jun-13 21:30N 33°45' W 118°14'0 0.0
2018-Jun-13 21:00N 33°45' W 118°14'0 0.0
2018-Jun-13 20:30N 33°45' W 118°14'0 0.0
2018-Jun-13 20:00N 33°45' W 118°14'0 0.0
2018-Jun-13 19:30N 33°45' W 118°14'0 0.0
2018-Jun-13 19:00N 33°45' W 118°14'0 0.0
2018-Jun-13 18:24N 33°45' W 118°14'0 0.0
2018-Jun-13 18:00N 33°45' W 118°14'0 0.0
2018-Jun-13 17:30N 33°45' W 118°14'0 0.0
2018-Jun-13 17:00N 33°45' W 118°14'0 0.0
2018-Jun-13 16:30N 33°45' W 118°14'0 0.0
2018-Jun-13 16:00N 33°45' W 118°14'0 0.0
2018-Jun-13 15:30N 33°45' W 118°14'0 0.0
2018-Jun-13 15:00N 33°45' W 118°14'0 0.0
2018-Jun-13 14:30N 33°45' W 118°14'0 0.0
2018-Jun-13 14:00N 33°45' W 118°14'0 0.0
2018-Jun-13 13:30N 33°45' W 118°14'0 0.0
2018-Jun-13 13:00N 33°45' W 118°14'0 0.0
2018-Jun-13 12:30N 33°45' W 118°14'0 0.0
2018-Jun-13 11:57N 33°45' W 118°14'0 0.0
2018-Jun-13 11:30N 33°45' W 118°14'0 0.0
2018-Jun-13 11:00N 33°45' W 118°14'0 0.0
2018-Jun-13 10:30N 33°45' W 118°14'0 0.0
2018-Jun-13 10:00N 33°45' W 118°14'0 0.0
2018-Jun-13 09:30N 33°45' W 118°14'0 0.0
2018-Jun-13 09:00N 33°45' W 118°14'0 0.0
2018-Jun-13 08:30N 33°45' W 118°14'0 0.0
2018-Jun-13 08:00N 33°45' W 118°14'0 0.0
2018-Jun-13 07:30N 33°45' W 118°14'0 0.1
2018-Jun-13 07:00N 33°45' W 118°14'0 0.1
2018-Jun-13 06:30N 33°45' W 118°14'0 0.0
2018-Jun-13 05:57N 33°45' W 118°14'0 0.0
2018-Jun-13 05:27N 33°45' W 118°14'0 0.0
2018-Jun-13 05:00N 33°45' W 118°14'0 0.1
2018-Jun-13 04:30N 33°45' W 118°14'0 0.1
2018-Jun-13 04:00N 33°45' W 118°14'0 0.0
2018-Jun-13 03:30N 33°45' W 118°14'0 0.0
2018-Jun-13 03:00N 33°45' W 118°14'0 0.1
2018-Jun-13 02:30N 33°45' W 118°14'0 0.1
2018-Jun-13 02:00N 33°45' W 118°14'0 0.0
2018-Jun-13 01:30N 33°45' W 118°14'0 0.1
2018-Jun-13 01:00N 33°45' W 118°14'0 0.1
2018-Jun-13 00:30N 33°45' W 118°14'0 0.0
2018-Jun-13 00:00N 33°45' W 118°14'0 0.0
2018-Jun-12 23:30N 33°45' W 118°14'0 0.1
2018-Jun-12 23:00N 33°45' W 118°14'0 0.1
2018-Jun-12 22:30N 33°45' W 118°14'0 0.0
2018-Jun-12 22:00N 33°45' W 118°14'0 0.1
2018-Jun-12 21:30N 33°45' W 118°14'0 0.1
2018-Jun-12 21:00N 33°45' W 118°14'0 0.1
2018-Jun-12 20:30N 33°45' W 118°14'0 0.0
2018-Jun-12 20:00N 33°45' W 118°14'0 0.0
2018-Jun-12 19:30N 33°45' W 118°14'0 0.0
2018-Jun-12 18:57N 33°45' W 118°14'0 0.1
2018-Jun-12 18:30N 33°45' W 118°14'0 0.0
2018-Jun-12 18:00N 33°45' W 118°14'0 0.0
2018-Jun-12 17:27N 33°45' W 118°14'0 0.1
2018-Jun-12 17:00N 33°45' W 118°14'0 0.1
2018-Jun-12 16:30N 33°45' W 118°14'0 0.0
2018-Jun-12 16:00N 33°45' W 118°14'0 0.0
2018-Jun-12 15:30N 33°45' W 118°14'0 0.1
2018-Jun-12 15:00N 33°45' W 118°14'0 0.1
2018-Jun-12 14:30N 33°45' W 118°14'0 0.1
2018-Jun-12 14:00N 33°45' W 118°14'0 0.0
2018-Jun-12 13:30N 33°45' W 118°14'0 0.0
2018-Jun-12 13:00N 33°45' W 118°14'0 0.0
2018-Jun-12 12:30N 33°45' W 118°14'0 0.1
2018-Jun-12 12:00N 33°45' W 118°14'0 0.0
2018-Jun-12 11:30N 33°45' W 118°14'0 0.1
2018-Jun-12 11:00N 33°45' W 118°14'0 0.0
2018-Jun-12 10:30N 33°45' W 118°14'0 0.1
2018-Jun-12 10:00N 33°45' W 118°14'0 0.1
2018-Jun-12 09:30N 33°45' W 118°14'0 0.1
2018-Jun-12 09:00N 33°45' W 118°14'0 0.1
2018-Jun-12 08:30N 33°45' W 118°14'0 0.1
2018-Jun-12 08:00N 33°45' W 118°14'0 0.1
2018-Jun-12 07:27N 33°45' W 118°14'0 0.0
2018-Jun-12 07:00N 33°45' W 118°14'0 0.0
2018-Jun-12 06:30N 33°45' W 118°14'0 0.0
2018-Jun-12 06:00N 33°45' W 118°14'0 0.1
2018-Jun-12 05:30N 33°45' W 118°14'0 0.0
2018-Jun-12 05:00N 33°45' W 118°14'0 0.1
2018-Jun-12 04:30N 33°45' W 118°14'0 0.1
2018-Jun-12 04:00N 33°45' W 118°14'0 0.0
2018-Jun-12 03:30N 33°45' W 118°14'0 0.1
2018-Jun-12 02:57N 33°45' W 118°14'0 0.1
2018-Jun-12 02:30N 33°45' W 118°14'0 0.0
2018-Jun-12 01:57N 33°45' W 118°14'0 0.0
2018-Jun-12 01:30N 33°45' W 118°14'0 0.0
2018-Jun-12 01:00N 33°45' W 118°14'0 0.1
2018-Jun-12 00:27N 33°45' W 118°14'0 0.1
2018-Jun-12 00:00N 33°45' W 118°14'0 0.0
2018-Jun-11 23:30N 33°45' W 118°14'0 0.0
2018-Jun-11 23:00N 33°45' W 118°14'0 0.1
2018-Jun-11 22:30N 33°45' W 118°14'0 0.1
2018-Jun-11 22:00N 33°45' W 118°14'0 0.0
2018-Jun-11 21:30N 33°45' W 118°14'0 0.0
2018-Jun-11 21:00N 33°45' W 118°14'0 0.0
2018-Jun-11 20:30N 33°45' W 118°14'0 0.1
2018-Jun-11 20:00N 33°45' W 118°14'0 0.1
2018-Jun-11 19:30N 33°45' W 118°14'0 0.1
2018-Jun-11 19:00N 33°45' W 118°14'0 0.0
2018-Jun-11 18:30N 33°45' W 118°14'0 0.1
2018-Jun-11 18:00N 33°45' W 118°14'0 0.0
2018-Jun-11 17:30N 33°45' W 118°14'0 0.1
2018-Jun-11 17:00N 33°45' W 118°14'0 0.1
2018-Jun-11 16:30N 33°45' W 118°14'0 0.1
2018-Jun-11 16:00N 33°45' W 118°14'0 0.0
2018-Jun-11 15:30N 33°45' W 118°14'0 0.0
2018-Jun-11 14:54N 33°45' W 118°14'0 0.0
2018-Jun-11 14:30N 33°45' W 118°14'0 0.1
2018-Jun-11 14:00N 33°45' W 118°14'0 0.1
2018-Jun-11 13:30N 33°45' W 118°14'0 0.1
2018-Jun-11 13:00N 33°45' W 118°14'0 0.0
2018-Jun-11 12:30N 33°45' W 118°14'0 0.1
2018-Jun-11 11:57N 33°45' W 118°14'0 0.1
2018-Jun-11 11:30N 33°45' W 118°14'0 0.0
2018-Jun-11 11:00N 33°45' W 118°14'0 0.1
2018-Jun-11 10:30N 33°45' W 118°14'0 0.0
2018-Jun-11 10:00N 33°45' W 118°14'0 0.0
2018-Jun-11 09:30N 33°45' W 118°14'0 0.0
2018-Jun-11 08:57N 33°45' W 118°14'0 0.0
2018-Jun-11 08:30N 33°45' W 118°14'0 0.1
2018-Jun-11 08:00N 33°45' W 118°14'0 0.0
2018-Jun-11 07:30N 33°45' W 118°14'0 0.0
2018-Jun-11 07:00N 33°45' W 118°14'0 0.1
2018-Jun-11 06:30N 33°45' W 118°14'0 0.0
2018-Jun-11 06:00N 33°45' W 118°14'0 0.0
2018-Jun-11 05:30N 33°45' W 118°14'0 0.0
2018-Jun-11 05:00N 33°45' W 118°14'0 0.0
2018-Jun-11 04:30N 33°45' W 118°14'0 0.0
2018-Jun-11 04:00N 33°45' W 118°14'0 0.0
2018-Jun-11 03:27N 33°45' W 118°14'0 0.0
2018-Jun-11 03:00N 33°45' W 118°14'0 0.0
2018-Jun-11 02:30N 33°45' W 118°14'0 0.1
2018-Jun-11 02:00N 33°45' W 118°14'0 0.0
2018-Jun-11 01:30N 33°45' W 118°14'0 0.1
2018-Jun-11 01:00N 33°45' W 118°14'0 0.0
2018-Jun-11 00:30N 33°45' W 118°14'0 0.0
2018-Jun-11 00:00N 33°45' W 118°14'0 0.0
2018-Jun-10 23:30N 33°45' W 118°14'0 0.0
2018-Jun-10 23:00N 33°45' W 118°14'0 0.0
2018-Jun-10 22:27N 33°45' W 118°14'0 0.1
2018-Jun-10 22:00N 33°45' W 118°14'1 1.2
2018-Jun-10 21:30N 33°45' W 118°14'3 6.0
2018-Jun-10 21:00N 33°43' W 118°11'2 4.8
2018-Jun-10 20:31N 33°41' W 118°10'1 1.4
2018-Jun-10 20:00N 33°41' W 118°10'3 6.4
2018-Jun-10 19:30N 33°38' W 118°13'4 8.9
2018-Jun-10 19:00N 33°36' W 118°18'510.5
2018-Jun-10 18:30N 33°38' W 118°24'510.9
2018-Jun-10 18:00N 33°40' W 118°29'611.0
2018-Jun-10 17:29N 33°43' W 118°35'510.9
2018-Jun-10 17:00N 33°46' W 118°41'611.2
2018-Jun-10 16:30N 33°49' W 118°47'611.2
2018-Jun-10 16:00N 33°51' W 118°52'711.1
2018-Jun-10 15:23N 33°55' W 118°60'511.2
2018-Jun-10 14:57N 33°57' W 119°05'1111.3
2018-Jun-10 13:59N 34°03' W 119°16'511.4
2018-Jun-10 13:30N 34°04' W 119°23'611.9
2018-Jun-10 12:58N 34°06' W 119°30'612.4
2018-Jun-10 12:28N 34°07' W 119°37'612.4
2018-Jun-10 11:57N 34°09' W 119°45'512.2
2018-Jun-10 11:30N 34°10' W 119°51'713.4
2018-Jun-10 10:58N 34°12' W 119°59'613.2
2018-Jun-10 10:30N 34°14' W 120°07'713.1
2018-Jun-10 09:59N 34°16' W 120°15'712.9
2018-Jun-10 09:28N 34°17' W 120°23'613.2
2018-Jun-10 09:00N 34°19' W 120°30'916.9
2018-Jun-10 08:30N 34°21' W 120°40'817.1
2018-Jun-10 08:01N 34°24' W 120°49'916.9
2018-Jun-10 07:30N 34°26' W 120°59'816.4
2018-Jun-10 07:00N 34°27' W 121°09'816.2
2018-Jun-10 06:30N 34°29' W 121°19'816.0
2018-Jun-10 06:01N 34°30' W 121°28'816.2
2018-Jun-10 05:31N 34°32' W 121°38'816.3
2018-Jun-10 05:01N 34°34' W 121°47'916.1
2018-Jun-10 04:28N 34°37' W 121°58'716.2
2018-Jun-10 04:00N 34°39' W 122°06'816.8
2018-Jun-10 03:31N 34°41' W 122°16'1017.0
2018-Jun-10 02:57N 34°43' W 122°27'  
Track history (hours):
 
Tides and Currents Weather Stations Pressure Air Temp Water Temp Dewpoint Dewpoint Depression Visibility Wind Speed Wind Dir Waves Ship Positions

Ice Star

Last reported at 2018-Jun-18 08:37 UTC. Time now 2018-Jun-18 17:38 UTC.
Position N 40°14' W 130°25'.

Length 367 m; draft 12.2 m.

Type: Ship (hazmat cat A). MMSI: 220596000.

Date/timePositionNaut miles runAvg speedWind from/ knotsBaromVisibWave heightAir tempDewpointWater temp
2018-Jun-18 08:37N 40°14' W 130°25'617.5
2018-Jun-18 08:15N 40°09' W 130°19'517.7
2018-Jun-18 07:57N 40°06' W 130°14'817.4
2018-Jun-18 07:30N 40°01' W 130°07'917.0
2018-Jun-18 06:59N 39°55' W 129°58'1916.8
2018-Jun-18 05:52N 39°42' W 129°40'616.6
2018-Jun-18 05:30N 39°37' W 129°35'1016.8
2018-Jun-18 04:56N 39°31' W 129°26'716.8
2018-Jun-18 04:30N 39°26' W 129°19'816.9
2018-Jun-18 04:00N 39°20' W 129°11'916.7
2018-Jun-18 03:29N 39°14' W 129°03'816.7
2018-Jun-18 03:00N 39°08' W 128°56'916.5
2018-Jun-18 02:28N 39°02' W 128°48'1216.7
2018-Jun-18 01:43N 38°53' W 128°36'616.7
2018-Jun-18 01:21N 38°49' W 128°30'18014.4
2018-Jun-17 12:55N 38°14' W 124°45'613.9
2018-Jun-17 12:28N 38°14' W 124°37'613.7
2018-Jun-17 12:00N 38°13' W 124°29'714.2
2018-Jun-17 11:30N 38°13' W 124°20'714.5
2018-Jun-17 11:01N 38°13' W 124°11'713.9
2018-Jun-17 10:30N 38°12' W 124°02'714.0
2018-Jun-17 10:00N 38°12' W 123°53'714.4
2018-Jun-17 09:30N 38°11' W 123°44'714.3
2018-Jun-17 09:00N 38°11' W 123°35'714.3
2018-Jun-17 08:30N 38°10' W 123°26'510.8
2018-Jun-17 08:00N 38°08' W 123°20'5 9.6
2018-Jun-17 07:30N 38°05' W 123°15'5 9.3
2018-Jun-17 07:00N 38°01' W 123°12'5 9.4
2018-Jun-17 06:30N 37°58' W 123°07'510.0
2018-Jun-17 06:00N 37°56' W 123°02'5 9.9
2018-Jun-17 05:30N 37°53' W 122°56'5 9.9
2018-Jun-17 05:00N 37°51' W 122°51'5 9.6
2018-Jun-17 04:30N 37°48' W 122°46'5 9.9
2018-Jun-17 04:00N 37°45' W 122°41'5 9.3
2018-Jun-17 03:31N 37°47' W 122°35'714.9
2018-Jun-17 03:01N 37°51' W 122°27'510.6
2018-Jun-17 02:30N 37°48' W 122°21'2 3.5
2018-Jun-17 01:59N 37°48' W 122°19'0 0.0
2018-Jun-17 01:29N 37°48' W 122°19'0 0.0
2018-Jun-17 00:59N 37°48' W 122°19'0 0.0
2018-Jun-17 00:29N 37°48' W 122°19'0 0.0
2018-Jun-16 23:59N 37°48' W 122°19'0 0.0
2018-Jun-16 23:26N 37°48' W 122°19'0 0.0
2018-Jun-16 22:56N 37°48' W 122°19'0 0.0
2018-Jun-16 22:29N 37°48' W 122°19'0 0.0
2018-Jun-16 21:59N 37°48' W 122°19'0 0.0
2018-Jun-16 21:29N 37°48' W 122°19'0 0.0
2018-Jun-16 20:56N 37°48' W 122°19'0 0.0
2018-Jun-16 20:29N 37°48' W 122°19'0 0.0
2018-Jun-16 19:56N 37°48' W 122°19'0 0.0
2018-Jun-16 19:29N 37°48' W 122°19'0 0.0
2018-Jun-16 18:59N 37°48' W 122°19'0 0.0
2018-Jun-16 18:29N 37°48' W 122°19'0 0.0
2018-Jun-16 17:59N 37°48' W 122°19'0 0.0
2018-Jun-16 17:29N 37°48' W 122°19'0 0.0
2018-Jun-16 16:56N 37°48' W 122°19'0 0.0
2018-Jun-16 16:26N 37°48' W 122°19'0 0.0
2018-Jun-16 15:59N 37°48' W 122°19'0 0.0
2018-Jun-16 15:29N 37°48' W 122°19'0 0.0
2018-Jun-16 14:59N 37°48' W 122°19'0 0.0
2018-Jun-16 14:29N 37°48' W 122°19'0 0.0
2018-Jun-16 13:59N 37°48' W 122°19'0 0.0
2018-Jun-16 13:23N 37°48' W 122°19'0 0.0
2018-Jun-16 12:59N 37°48' W 122°19'0 0.0
2018-Jun-16 12:29N 37°48' W 122°19'0 0.0
2018-Jun-16 11:59N 37°48' W 122°19'0 0.0
2018-Jun-16 11:26N 37°48' W 122°19'0 0.0
2018-Jun-16 10:59N 37°48' W 122°19'0 0.0
2018-Jun-16 10:29N 37°48' W 122°19'0 0.0
2018-Jun-16 09:59N 37°48' W 122°19'0 0.0
2018-Jun-16 09:26N 37°48' W 122°19'0 0.0
2018-Jun-16 08:59N 37°48' W 122°19'0 0.0
2018-Jun-16 08:29N 37°48' W 122°19'0 0.0
2018-Jun-16 07:59N 37°48' W 122°19'0 0.0
2018-Jun-16 07:29N 37°48' W 122°19'0 0.0
2018-Jun-16 06:59N 37°48' W 122°19'0 0.0
2018-Jun-16 06:29N 37°48' W 122°19'0 0.0
2018-Jun-16 05:59N 37°48' W 122°19'0 0.0
2018-Jun-16 05:29N 37°48' W 122°19'0 0.0
2018-Jun-16 04:59N 37°48' W 122°19'0 0.0
2018-Jun-16 04:29N 37°48' W 122°19'0 0.0
2018-Jun-16 03:59N 37°48' W 122°19'0 0.0
2018-Jun-16 03:26N 37°48' W 122°19'0 0.0
2018-Jun-16 02:59N 37°48' W 122°19'0 0.0
2018-Jun-16 02:26N 37°48' W 122°19'0 0.0
2018-Jun-16 01:56N 37°48' W 122°19'0 0.0
2018-Jun-16 01:29N 37°48' W 122°19'0 0.0
2018-Jun-16 00:59N 37°48' W 122°19'0 0.0
2018-Jun-16 00:29N 37°48' W 122°19'0 0.0
2018-Jun-15 23:59N 37°48' W 122°19'0 0.0
2018-Jun-15 23:31N 37°48' W 122°19'1 2.1
2018-Jun-15 23:00N 37°48' W 122°17'1 1.7
2018-Jun-15 22:30N 37°48' W 122°18'3 5.5
2018-Jun-15 22:00N 37°48' W 122°22'510.0
2018-Jun-15 21:30N 37°49' W 122°28'714.4
2018-Jun-15 21:00N 37°46' W 122°36'4 7.4
2018-Jun-15 20:30N 37°44' W 122°39'3 7.0
2018-Jun-15 20:00N 37°40' W 122°39'5 9.6
2018-Jun-15 19:30N 37°35' W 122°39'5 9.5
2018-Jun-15 19:00N 37°31' W 122°40'5 9.5
2018-Jun-15 18:30N 37°26' W 122°40'5 9.5
2018-Jun-15 18:00N 37°21' W 122°40'5 9.7
2018-Jun-15 17:30N 37°16' W 122°39'5 9.9
2018-Jun-15 17:00N 37°11' W 122°39'713.2
2018-Jun-15 16:30N 37°05' W 122°37'713.5
2018-Jun-15 15:58N 36°58' W 122°33'713.5
2018-Jun-15 15:29N 36°52' W 122°30'7913.6
2018-Jun-15 09:42N 35°42' W 121°46'1313.0
2018-Jun-15 08:43N 35°31' W 121°37'313.8
2018-Jun-15 08:28N 35°28' W 121°35'813.9
2018-Jun-15 07:55N 35°22' W 121°31'714.0
2018-Jun-15 07:24N 35°15' W 121°26'513.1
2018-Jun-15 07:00N 35°11' W 121°23'812.9
2018-Jun-15 06:25N 35°04' W 121°19'613.7
2018-Jun-15 05:58N 34°59' W 121°15'714.1
2018-Jun-15 05:27N 34°53' W 121°11'713.8
2018-Jun-15 04:57N 34°47' W 121°06'714.0
2018-Jun-15 04:28N 34°41' W 121°02'713.7
2018-Jun-15 03:59N 34°35' W 120°58'714.1
2018-Jun-15 03:28N 34°29' W 120°54'1513.9
2018-Jun-15 02:23N 34°23' W 120°37'613.2
2018-Jun-15 01:58N 34°21' W 120°30'5 9.0
2018-Jun-15 01:26N 34°20' W 120°25'4 8.7
2018-Jun-15 01:00N 34°19' W 120°20'5 8.9
2018-Jun-15 00:29N 34°18' W 120°15'4 8.9
2018-Jun-14 23:59N 34°17' W 120°10'4 8.9
2018-Jun-14 23:30N 34°16' W 120°05'5 9.1
2018-Jun-14 23:00N 34°15' W 119°59'5 9.3
2018-Jun-14 22:29N 34°13' W 119°54'5 9.6
2018-Jun-14 21:58N 34°12' W 119°48'4 9.7
2018-Jun-14 21:30N 34°11' W 119°43'5 9.9
2018-Jun-14 21:00N 34°10' W 119°37'5 9.7
2018-Jun-14 20:30N 34°08' W 119°32'611.5
2018-Jun-14 19:59N 34°06' W 119°25'612.0
2018-Jun-14 19:30N 34°05' W 119°18'611.8
2018-Jun-14 19:00N 34°03' W 119°11'611.7
2018-Jun-14 18:30N 33°60' W 119°05'611.6
2018-Jun-14 17:58N 33°57' W 118°59'611.5
2018-Jun-14 17:29N 33°54' W 118°53'611.7
2018-Jun-14 17:00N 33°51' W 118°47'611.5
2018-Jun-14 16:29N 33°48' W 118°41'611.7
2018-Jun-14 16:00N 33°45' W 118°35'611.4
2018-Jun-14 15:30N 33°43' W 118°29'611.4
2018-Jun-14 15:00N 33°40' W 118°23'611.0
2018-Jun-14 14:28N 33°38' W 118°16'4 9.4
2018-Jun-14 14:00N 33°41' W 118°12'4 7.2
2018-Jun-14 13:31N 33°44' W 118°12'2 3.4
2018-Jun-14 13:00N 33°45' W 118°14'0 0.7
2018-Jun-14 12:30N 33°45' W 118°14'0 0.0
2018-Jun-14 12:00N 33°45' W 118°14'0 0.0
2018-Jun-14 11:30N 33°45' W 118°14'0 0.0
2018-Jun-14 11:00N 33°45' W 118°14'0 0.0
2018-Jun-14 10:30N 33°45' W 118°14'0 0.0
2018-Jun-14 09:57N 33°45' W 118°14'0 0.0
2018-Jun-14 09:30N 33°45' W 118°14'0 0.0
2018-Jun-14 09:00N 33°45' W 118°14'0 0.0
2018-Jun-14 08:30N 33°45' W 118°14'0 0.0
2018-Jun-14 08:00N 33°45' W 118°14'0 0.0
2018-Jun-14 07:30N 33°45' W 118°14'0 0.0
2018-Jun-14 07:00N 33°45' W 118°14'0 0.0
2018-Jun-14 06:30N 33°45' W 118°14'0 0.0
2018-Jun-14 05:57N 33°45' W 118°14'0 0.0
2018-Jun-14 05:30N 33°45' W 118°14'0 0.0
2018-Jun-14 05:00N 33°45' W 118°14'0 0.0
2018-Jun-14 04:30N 33°45' W 118°14'0 0.0
2018-Jun-14 04:00N 33°45' W 118°14'0 0.0
2018-Jun-14 03:30N 33°45' W 118°14'0 0.0
2018-Jun-14 03:00N 33°45' W 118°14'0 0.0
2018-Jun-14 02:30N 33°45' W 118°14'0 0.0
2018-Jun-14 02:00N 33°45' W 118°14'0 0.0
2018-Jun-14 01:30N 33°45' W 118°14'0 0.0
2018-Jun-14 01:00N 33°45' W 118°14'0 0.0
2018-Jun-14 00:30N 33°45' W 118°14'0 0.0
2018-Jun-14 00:00N 33°45' W 118°14'0 0.0
2018-Jun-13 23:30N 33°45' W 118°14'0 0.0
2018-Jun-13 23:00N 33°45' W 118°14'0 0.0
2018-Jun-13 22:30N 33°45' W 118°14'0 0.0
2018-Jun-13 21:57N 33°45' W 118°14'0 0.0
2018-Jun-13 21:30N 33°45' W 118°14'0 0.0
2018-Jun-13 21:00N 33°45' W 118°14'0 0.0
2018-Jun-13 20:30N 33°45' W 118°14'0 0.0
2018-Jun-13 20:00N 33°45' W 118°14'0 0.0
2018-Jun-13 19:30N 33°45' W 118°14'0 0.0
2018-Jun-13 19:00N 33°45' W 118°14'0 0.0
2018-Jun-13 18:24N 33°45' W 118°14'0 0.0
2018-Jun-13 18:00N 33°45' W 118°14'0 0.0
2018-Jun-13 17:30N 33°45' W 118°14'0 0.0
2018-Jun-13 17:00N 33°45' W 118°14'0 0.0
2018-Jun-13 16:30N 33°45' W 118°14'0 0.0
2018-Jun-13 16:00N 33°45' W 118°14'0 0.0
2018-Jun-13 15:30N 33°45' W 118°14'0 0.0
2018-Jun-13 15:00N 33°45' W 118°14'0 0.0
2018-Jun-13 14:30N 33°45' W 118°14'0 0.0
2018-Jun-13 14:00N 33°45' W 118°14'0 0.0
2018-Jun-13 13:30N 33°45' W 118°14'0 0.0
2018-Jun-13 13:00N 33°45' W 118°14'0 0.0
2018-Jun-13 12:30N 33°45' W 118°14'0 0.0
2018-Jun-13 11:57N 33°45' W 118°14'0 0.0
2018-Jun-13 11:30N 33°45' W 118°14'0 0.0
2018-Jun-13 11:00N 33°45' W 118°14'0 0.0
2018-Jun-13 10:30N 33°45' W 118°14'0 0.0
2018-Jun-13 10:00N 33°45' W 118°14'0 0.0
2018-Jun-13 09:30N 33°45' W 118°14'0 0.0
2018-Jun-13 09:00N 33°45' W 118°14'0 0.0
2018-Jun-13 08:30N 33°45' W 118°14'0 0.0
2018-Jun-13 08:00N 33°45' W 118°14'0 0.0
2018-Jun-13 07:30N 33°45' W 118°14'0 0.1
2018-Jun-13 07:00N 33°45' W 118°14'0 0.1
2018-Jun-13 06:30N 33°45' W 118°14'0 0.0
2018-Jun-13 05:57N 33°45' W 118°14'0 0.0
2018-Jun-13 05:27N 33°45' W 118°14'0 0.0
2018-Jun-13 05:00N 33°45' W 118°14'0 0.1
2018-Jun-13 04:30N 33°45' W 118°14'0 0.1
2018-Jun-13 04:00N 33°45' W 118°14'0 0.0
2018-Jun-13 03:30N 33°45' W 118°14'0 0.0
2018-Jun-13 03:00N 33°45' W 118°14'0 0.1
2018-Jun-13 02:30N 33°45' W 118°14'0 0.1
2018-Jun-13 02:00N 33°45' W 118°14'0 0.0
2018-Jun-13 01:30N 33°45' W 118°14'0 0.1
2018-Jun-13 01:00N 33°45' W 118°14'0 0.1
2018-Jun-13 00:30N 33°45' W 118°14'0 0.0
2018-Jun-13 00:00N 33°45' W 118°14'0 0.0
2018-Jun-12 23:30N 33°45' W 118°14'0 0.1
2018-Jun-12 23:00N 33°45' W 118°14'0 0.1
2018-Jun-12 22:30N 33°45' W 118°14'0 0.0
2018-Jun-12 22:00N 33°45' W 118°14'0 0.1
2018-Jun-12 21:30N 33°45' W 118°14'0 0.1
2018-Jun-12 21:00N 33°45' W 118°14'0 0.1
2018-Jun-12 20:30N 33°45' W 118°14'0 0.0
2018-Jun-12 20:00N 33°45' W 118°14'0 0.0
2018-Jun-12 19:30N 33°45' W 118°14'0 0.0
2018-Jun-12 18:57N 33°45' W 118°14'0 0.1
2018-Jun-12 18:30N 33°45' W 118°14'0 0.0
2018-Jun-12 18:00N 33°45' W 118°14'0 0.0
2018-Jun-12 17:27N 33°45' W 118°14'0 0.1
2018-Jun-12 17:00N 33°45' W 118°14'0 0.1
2018-Jun-12 16:30N 33°45' W 118°14'0 0.0
2018-Jun-12 16:00N 33°45' W 118°14'0 0.0
2018-Jun-12 15:30N 33°45' W 118°14'0 0.1
2018-Jun-12 15:00N 33°45' W 118°14'0 0.1
2018-Jun-12 14:30N 33°45' W 118°14'0 0.1
2018-Jun-12 14:00N 33°45' W 118°14'0 0.0
2018-Jun-12 13:30N 33°45' W 118°14'0 0.0
2018-Jun-12 13:00N 33°45' W 118°14'0 0.0
2018-Jun-12 12:30N 33°45' W 118°14'0 0.1
2018-Jun-12 12:00N 33°45' W 118°14'0 0.0
2018-Jun-12 11:30N 33°45' W 118°14'0 0.1
2018-Jun-12 11:00N 33°45' W 118°14'0 0.0
2018-Jun-12 10:30N 33°45' W 118°14'0 0.1
2018-Jun-12 10:00N 33°45' W 118°14'0 0.1
2018-Jun-12 09:30N 33°45' W 118°14'0 0.1
2018-Jun-12 09:00N 33°45' W 118°14'0 0.1
2018-Jun-12 08:30N 33°45' W 118°14'0 0.1
2018-Jun-12 08:00N 33°45' W 118°14'0 0.1
2018-Jun-12 07:27N 33°45' W 118°14'0 0.0
2018-Jun-12 07:00N 33°45' W 118°14'0 0.0
2018-Jun-12 06:30N 33°45' W 118°14'0 0.0
2018-Jun-12 06:00N 33°45' W 118°14'0 0.1
2018-Jun-12 05:30N 33°45' W 118°14'0 0.0
2018-Jun-12 05:00N 33°45' W 118°14'0 0.1
2018-Jun-12 04:30N 33°45' W 118°14'0 0.1
2018-Jun-12 04:00N 33°45' W 118°14'0 0.0
2018-Jun-12 03:30N 33°45' W 118°14'0 0.1
2018-Jun-12 02:57N 33°45' W 118°14'0 0.1
2018-Jun-12 02:30N 33°45' W 118°14'0 0.0
2018-Jun-12 01:57N 33°45' W 118°14'0 0.0
2018-Jun-12 01:30N 33°45' W 118°14'0 0.0
2018-Jun-12 01:00N 33°45' W 118°14'0 0.1
2018-Jun-12 00:27N 33°45' W 118°14'0 0.1
2018-Jun-12 00:00N 33°45' W 118°14'0 0.0
2018-Jun-11 23:30N 33°45' W 118°14'0 0.0
2018-Jun-11 23:00N 33°45' W 118°14'0 0.1
2018-Jun-11 22:30N 33°45' W 118°14'0 0.1
2018-Jun-11 22:00N 33°45' W 118°14'0 0.0
2018-Jun-11 21:30N 33°45' W 118°14'0 0.0
2018-Jun-11 21:00N 33°45' W 118°14'0 0.0
2018-Jun-11 20:30N 33°45' W 118°14'0 0.1
2018-Jun-11 20:00N 33°45' W 118°14'0 0.1
2018-Jun-11 19:30N 33°45' W 118°14'0 0.1
2018-Jun-11 19:00N 33°45' W 118°14'0 0.0
2018-Jun-11 18:30N 33°45' W 118°14'0 0.1
2018-Jun-11 18:00N 33°45' W 118°14'0 0.0
2018-Jun-11 17:30N 33°45' W 118°14'0 0.1
2018-Jun-11 17:00N 33°45' W 118°14'0 0.1
2018-Jun-11 16:30N 33°45' W 118°14'0 0.1
2018-Jun-11 16:00N 33°45' W 118°14'0 0.0
2018-Jun-11 15:30N 33°45' W 118°14'0 0.0
2018-Jun-11 14:54N 33°45' W 118°14'0 0.0
2018-Jun-11 14:30N 33°45' W 118°14'0 0.1
2018-Jun-11 14:00N 33°45' W 118°14'0 0.1
2018-Jun-11 13:30N 33°45' W 118°14'0 0.1
2018-Jun-11 13:00N 33°45' W 118°14'0 0.0
2018-Jun-11 12:30N 33°45' W 118°14'0 0.1
2018-Jun-11 11:57N 33°45' W 118°14'0 0.1
2018-Jun-11 11:30N 33°45' W 118°14'0 0.0
2018-Jun-11 11:00N 33°45' W 118°14'0 0.1
2018-Jun-11 10:30N 33°45' W 118°14'0 0.0
2018-Jun-11 10:00N 33°45' W 118°14'0 0.0
2018-Jun-11 09:30N 33°45' W 118°14'0 0.0
2018-Jun-11 08:57N 33°45' W 118°14'0 0.0
2018-Jun-11 08:30N 33°45' W 118°14'0 0.1
2018-Jun-11 08:00N 33°45' W 118°14'0 0.0
2018-Jun-11 07:30N 33°45' W 118°14'0 0.0
2018-Jun-11 07:00N 33°45' W 118°14'0 0.1
2018-Jun-11 06:30N 33°45' W 118°14'0 0.0
2018-Jun-11 06:00N 33°45' W 118°14'0 0.0
2018-Jun-11 05:30N 33°45' W 118°14'0 0.0
2018-Jun-11 05:00N 33°45' W 118°14'0 0.0
2018-Jun-11 04:30N 33°45' W 118°14'0 0.0
2018-Jun-11 04:00N 33°45' W 118°14'0 0.0
2018-Jun-11 03:27N 33°45' W 118°14'0 0.0
2018-Jun-11 03:00N 33°45' W 118°14'0 0.0
2018-Jun-11 02:30N 33°45' W 118°14'0 0.1
2018-Jun-11 02:00N 33°45' W 118°14'0 0.0
2018-Jun-11 01:30N 33°45' W 118°14'0 0.1
2018-Jun-11 01:00N 33°45' W 118°14'0 0.0
2018-Jun-11 00:30N 33°45' W 118°14'0 0.0
2018-Jun-11 00:00N 33°45' W 118°14'0 0.0
2018-Jun-10 23:30N 33°45' W 118°14'0 0.0
2018-Jun-10 23:00N 33°45' W 118°14'0 0.0
2018-Jun-10 22:27N 33°45' W 118°14'0 0.1
2018-Jun-10 22:00N 33°45' W 118°14'1 1.2
2018-Jun-10 21:30N 33°45' W 118°14'3 6.0
2018-Jun-10 21:00N 33°43' W 118°11'2 4.8
2018-Jun-10 20:31N 33°41' W 118°10'1 1.4
2018-Jun-10 20:00N 33°41' W 118°10'3 6.4
2018-Jun-10 19:30N 33°38' W 118°13'4 8.9
2018-Jun-10 19:00N 33°36' W 118°18'510.5
2018-Jun-10 18:30N 33°38' W 118°24'510.9
2018-Jun-10 18:00N 33°40' W 118°29'611.0
2018-Jun-10 17:29N 33°43' W 118°35'510.9
2018-Jun-10 17:00N 33°46' W 118°41'611.2
2018-Jun-10 16:30N 33°49' W 118°47'611.2
2018-Jun-10 16:00N 33°51' W 118°52'711.1
2018-Jun-10 15:23N 33°55' W 118°60'511.2
2018-Jun-10 14:57N 33°57' W 119°05'1111.3
2018-Jun-10 13:59N 34°03' W 119°16'511.4
2018-Jun-10 13:30N 34°04' W 119°23'611.9
2018-Jun-10 12:58N 34°06' W 119°30'612.4
2018-Jun-10 12:28N 34°07' W 119°37'612.4
2018-Jun-10 11:57N 34°09' W 119°45'512.2
2018-Jun-10 11:30N 34°10' W 119°51'713.4
2018-Jun-10 10:58N 34°12' W 119°59'613.2
2018-Jun-10 10:30N 34°14' W 120°07'713.1
2018-Jun-10 09:59N 34°16' W 120°15'712.9
2018-Jun-10 09:28N 34°17' W 120°23'613.2
2018-Jun-10 09:00N 34°19' W 120°30'916.9
2018-Jun-10 08:30N 34°21' W 120°40'817.1
2018-Jun-10 08:01N 34°24' W 120°49'916.9
2018-Jun-10 07:30N 34°26' W 120°59'816.4
2018-Jun-10 07:00N 34°27' W 121°09'816.2
2018-Jun-10 06:30N 34°29' W 121°19'816.0
2018-Jun-10 06:01N 34°30' W 121°28'816.2
2018-Jun-10 05:31N 34°32' W 121°38'816.3
2018-Jun-10 05:01N 34°34' W 121°47'916.1
2018-Jun-10 04:28N 34°37' W 121°58'716.2
2018-Jun-10 04:00N 34°39' W 122°06'816.8
2018-Jun-10 03:31N 34°41' W 122°16'1017.0
2018-Jun-10 02:57N 34°43' W 122°27'  

Dump ship's entire track history